Pagrindinis puslapis
METAR-TAF:

METAR-TAF

Oro uostai :

Cape Newenham, Aliaska, Jungtinės Amerikos Valstijos

platuma: 58-39N, ilguma: 162-04W, Aukštis: 165 m

Dabartinis oras

Ataskaita buvo paskelbta 26 minutes, ne 16:55 UTC
Vėjas 4 kt iš Rytų/Pietryčių
Temperatūra -5°C
Drėgmė 93%
Slėgis 1012 hPa
Matomumas: 16.1 km
Mažai debesys ne aukštis 1200 ft
Išsisklaidę debesys ne aukštis 7500 ft

METAR: PAEH 071655Z AUTO 11004KT 10SM FEW012 SCT075 M05/M06 A2988 RMK AO2 SLP128 T10461064

Laikas: 09:21 (17:21 UTC)


TAF: trūkstamas

Orai ataskaitas ir orų prognozės (METAR, TAF).

turimą stotys yra geltonos ir raudonos taškus žemėlapyje.

Perkelti pele per norėdami pamatyti stoties vardą.

Tada spustelėkite, norėdami matyti oro stebėjimo ir prognozės.

Norėdami pakeisti žemėlapį: spustelėkite ant žalios mygtukų su juodo kryžiaus žemyn,; žalią mygtuką su brūkšneliu, jei norite nutolinti; arba žalių rodyklių gretimoms žemėlapius.


METAR-TAF: